Time;durP1;ratioP1;P1;durP2;ratioP2;P2;SDS_P1;SDS_P2;PMS_P1;PMS_P2;Temp;Humidity;BMP_temperature;BMP_pressure;BME280_temperature;BME280_humidity;BME280_pressure;Samples;Min_cycle;Max_cycle;Signal;HPM_P1;HPM_P2
2022/10/29 00:00:55;;;;;;;16.80;8.27;;;;;;;16.28;100.00;102043.56;5262389;28;20533;-79
2022/10/29 00:03:26;;;;;;;17.33;9.55;;;;;;;16.10;100.00;102038.13;5262476;28;20470;-79
2022/10/29 00:06:05;;;;;;;15.52;8.82;;;;;;;16.19;100.00;102033.81;5261359;28;20111;-78
2022/10/29 00:08:38;;;;;;;15.40;8.20;;;;;;;16.06;100.00;102036.72;5244432;28;20029;-79
2022/10/29 00:11:11;;;;;;;13.82;8.68;;;;;;;16.12;100.00;102024.78;5261364;28;20476;-78
2022/10/29 00:13:43;;;;;;;18.35;8.68;;;;;;;15.98;100.00;102021.53;5260505;28;20039;-78
2022/10/29 00:16:20;;;;;;;12.80;8.68;;;;;;;16.05;100.00;102021.84;5262564;28;20032;-79
2022/10/29 00:18:53;;;;;;;15.18;8.13;;;;;;;15.92;100.00;102023.91;5262358;28;20032;-79
2022/10/29 00:21:25;;;;;;;13.85;8.30;;;;;;;15.91;100.00;102023.09;5260779;28;20032;-79
2022/10/29 00:23:57;;;;;;;14.75;8.85;;;;;;;15.89;100.00;102029.47;5262039;28;20036;-78
2022/10/29 00:26:29;;;;;;;17.08;7.60;;;;;;;15.79;100.00;102019.69;5262231;28;20032;-79
2022/10/29 00:29:00;;;;;;;15.10;8.07;;;;;;;15.78;100.00;102025.94;5261068;28;20032;-78
2022/10/29 00:31:31;;;;;;;16.88;8.80;;;;;;;15.73;100.00;102020.25;5261412;28;20029;-78
2022/10/29 00:34:02;;;;;;;16.15;8.68;;;;;;;15.87;100.00;102032.22;5262003;28;20036;-79
2022/10/29 00:36:34;;;;;;;19.10;8.68;;;;;;;15.79;100.00;102032.06;5261722;28;20104;-79
2022/10/29 00:39:05;;;;;;;16.02;9.15;;;;;;;15.76;100.00;102027.91;5260058;28;20028;-78
2022/10/29 00:41:36;;;;;;;14.95;9.15;;;;;;;15.76;100.00;102032.38;5262004;28;20029;-78
2022/10/29 00:44:14;;;;;;;14.32;8.45;;;;;;;15.87;100.00;102029.56;5261883;28;20108;-79
2022/10/29 00:47:02;;;;;;;18.40;9.73;;;;;;;15.96;100.00;102043.81;5242637;28;20056;-78
2022/10/29 00:49:34;;;;;;;18.00;8.45;;;;;;;15.70;100.00;102041.66;5261579;28;20049;-79
2022/10/29 00:52:07;;;;;;;12.23;8.18;;;;;;;15.68;100.00;102053.31;5262071;28;20313;-78
2022/10/29 00:54:43;;;;;;;13.48;7.90;;;;;;;15.74;100.00;102042.22;5257423;28;20905;-78
2022/10/29 00:57:20;;;;;;;16.60;8.48;;;;;;;15.65;100.00;102048.28;5258962;28;20036;-78
2022/10/29 00:59:52;;;;;;;15.82;8.80;;;;;;;15.55;100.00;102053.53;5258700;28;20051;-79
2022/10/29 01:02:23;;;;;;;13.20;7.82;;;;;;;15.50;100.00;102042.53;5256075;28;20047;-78
2022/10/29 01:04:55;;;;;;;13.43;8.48;;;;;;;15.45;100.00;102039.44;5257559;28;20027;-79
2022/10/29 01:07:26;;;;;;;17.73;8.50;;;;;;;15.50;100.00;102031.97;5257507;28;20108;-78
2022/10/29 01:09:58;;;;;;;12.32;8.93;;;;;;;15.50;100.00;102039.88;5258148;28;20017;-79
2022/10/29 01:12:38;;;;;;;12.65;7.85;;;;;;;15.40;100.00;102020.50;5257111;28;20144;-78
2022/10/29 01:15:27;;;;;;;14.45;8.48;;;;;;;15.57;100.00;102026.00;5240283;28;20369;-79
2022/10/29 01:17:59;;;;;;;15.70;8.18;;;;;;;15.32;100.00;102022.00;5258118;28;20122;-79
2022/10/29 01:21:08;;;;;;;17.87;9.23;;;;;;;15.65;100.00;102011.31;5255804;28;20440;-79
2022/10/29 01:24:01;;;;;;;14.30;9.13;;;;;;;15.40;100.00;102000.22;5257914;28;20271;-79
2022/10/29 01:27:13;;;;;;;13.65;8.80;;;;;;;15.54;100.00;102005.16;5257719;28;20428;-79
2022/10/29 01:29:54;;;;;;;14.95;9.63;;;;;;;15.51;100.00;102012.50;5257350;28;20024;-79
2022/10/29 01:32:39;;;;;;;16.73;9.43;;;;;;;15.31;100.00;102007.16;5257784;28;20114;-79
2022/10/29 01:35:41;;;;;;;18.23;9.18;;;;;;;15.45;100.00;102013.84;5257525;28;20020;-79
2022/10/29 01:38:19;;;;;;;13.57;8.55;;;;;;;15.14;100.00;102007.75;5256029;28;20060;-79
2022/10/29 01:41:14;;;;;;;17.42;9.40;;;;;;;15.15;100.00;102009.41;5257463;28;20027;-79
2022/10/29 01:44:02;;;;;;;16.63;8.65;;;;;;;15.19;100.00;101995.00;5257766;28;20055;-78
2022/10/29 01:46:43;;;;;;;17.08;9.50;;;;;;;15.09;100.00;101989.66;5256947;28;20033;-78
2022/10/29 01:49:21;;;;;;;16.10;9.05;;;;;;;14.97;100.00;101979.34;5239857;28;20063;-78
2022/10/29 01:51:54;;;;;;;12.43;9.48;;;;;;;14.92;100.00;101976.22;5257378;28;20023;-79
2022/10/29 01:54:26;;;;;;;14.95;9.63;;;;;;;14.86;100.00;101960.94;5256003;28;20032;-78
2022/10/29 01:56:59;;;;;;;17.33;9.95;;;;;;;14.86;100.00;101971.50;5256924;28;20025;-78
2022/10/29 01:59:31;;;;;;;16.30;9.85;;;;;;;14.88;100.00;101972.19;5256648;28;20029;-79
2022/10/29 02:02:33;;;;;;;15.27;9.00;;;;;;;15.14;100.00;101978.72;5255660;28;20040;-79
2022/10/29 02:05:17;;;;;;;16.60;10.35;;;;;;;15.09;100.00;101973.00;5255675;28;20481;-78
2022/10/29 02:08:02;;;;;;;19.48;9.38;;;;;;;14.99;100.00;101972.94;5255773;28;20021;-78
2022/10/29 02:10:49;;;;;;;15.40;9.57;;;;;;;15.04;100.00;101986.59;5254620;28;20024;-76
2022/10/29 02:13:29;;;;;;;13.93;9.50;;;;;;;14.91;100.00;101982.50;5256931;28;20481;-76
2022/10/29 02:16:04;;;;;;;14.23;9.25;;;;;;;14.80;100.00;101976.31;5256175;28;20477;-77
2022/10/29 02:18:47;;;;;;;16.70;9.18;;;;;;;14.96;100.00;101962.66;5257504;28;20025;-76
2022/10/29 02:21:19;;;;;;;16.20;9.90;;;;;;;14.75;100.00;101961.84;5258005;28;20466;-77
2022/10/29 02:23:51;;;;;;;15.63;9.52;;;;;;;14.76;100.00;101971.44;5258275;28;20548;-77
2022/10/29 02:26:22;;;;;;;13.30;9.40;;;;;;;14.76;100.00;101956.44;5257677;28;20037;-76
2022/10/29 02:28:54;;;;;;;16.17;9.50;;;;;;;14.73;100.00;101953.22;5258374;28;20454;-77
2022/10/29 02:31:25;;;;;;;13.18;9.30;;;;;;;14.76;100.00;101951.16;5258404;28;20028;-77
2022/10/29 02:33:56;;;;;;;17.73;9.18;;;;;;;14.73;100.00;101950.59;5257568;28;20035;-77
2022/10/29 02:36:27;;;;;;;16.90;9.23;;;;;;;14.71;100.00;101940.16;5254603;28;20040;-76
2022/10/29 02:38:59;;;;;;;18.52;10.32;;;;;;;14.69;100.00;101934.19;5255525;28;20053;-77
2022/10/29 02:41:30;;;;;;;15.70;9.43;;;;;;;14.61;100.00;101928.72;5257295;28;20036;-77
2022/10/29 02:44:01;;;;;;;13.63;10.18;;;;;;;14.68;100.00;101937.78;5256184;28;20107;-77
2022/10/29 02:46:38;;;;;;;19.23;9.82;;;;;;;14.66;100.00;101937.09;5287173;23;20287;-72
2022/10/29 02:49:09;;;;;;;13.07;9.18;;;;;;;14.51;100.00;101947.13;5271799;28;20024;-72
2022/10/29 02:51:40;;;;;;;14.55;8.65;;;;;;;14.55;100.00;101942.44;5276900;28;20024;-72
2022/10/29 02:54:12;;;;;;;15.30;9.45;;;;;;;14.53;100.00;101941.72;5275884;28;20023;-72
2022/10/29 02:56:43;;;;;;;12.63;9.35;;;;;;;14.48;100.00;101936.81;5275591;28;20043;-72
2022/10/29 02:59:14;;;;;;;14.80;9.13;;;;;;;14.49;100.00;101937.63;5276989;28;20027;-73
2022/10/29 03:01:45;;;;;;;17.02;10.15;;;;;;;14.40;100.00;101920.81;5275266;28;20077;-72
2022/10/29 03:04:17;;;;;;;13.30;9.30;;;;;;;14.46;100.00;101922.06;5275110;28;20026;-72
2022/10/29 03:06:48;;;;;;;13.77;9.52;;;;;;;14.42;100.00;101925.94;5276605;28;20055;-72
2022/10/29 03:09:20;;;;;;;14.57;10.25;;;;;;;14.42;100.00;101926.75;5258231;28;20029;-73
2022/10/29 03:11:51;;;;;;;15.25;9.02;;;;;;;14.39;100.00;101924.38;5275684;28;20029;-73
2022/10/29 03:14:22;;;;;;;16.27;9.45;;;;;;;14.40;100.00;101933.16;5276224;28;20036;-72
2022/10/29 03:16:54;;;;;;;13.88;9.07;;;;;;;14.38;100.00;101929.78;5274913;28;20051;-74
2022/10/29 03:19:25;;;;;;;18.02;9.70;;;;;;;14.40;100.00;101915.53;5276016;28;20424;-72
2022/10/29 03:21:56;;;;;;;16.98;9.20;;;;;;;14.34;100.00;101921.31;5276512;28;20392;-74
2022/10/29 03:24:27;;;;;;;15.38;9.50;;;;;;;14.31;100.00;101921.56;5275774;28;20377;-72
2022/10/29 03:26:59;;;;;;;15.88;9.43;;;;;;;14.26;100.00;101924.56;5276991;28;20375;-73
2022/10/29 03:29:30;;;;;;;15.85;8.98;;;;;;;14.30;100.00;101918.09;5276098;28;20508;-72
2022/10/29 03:32:01;;;;;;;18.08;9.32;;;;;;;14.31;100.00;101911.00;5272042;28;20438;-72
2022/10/29 03:34:32;;;;;;;14.27;9.48;;;;;;;14.29;100.00;101907.69;5274274;28;20025;-73
2022/10/29 03:37:04;;;;;;;15.60;9.82;;;;;;;14.29;100.00;101902.41;5276812;28;20020;-73
2022/10/29 03:39:35;;;;;;;18.00;10.77;;;;;;;14.35;100.00;101896.59;5275049;28;20035;-72
2022/10/29 03:42:06;;;;;;;15.27;9.05;;;;;;;14.40;100.00;101896.25;5275354;28;20453;-72
2022/10/29 03:44:37;;;;;;;11.68;9.13;;;;;;;14.40;100.00;101897.06;5276579;28;20525;-72
2022/10/29 03:47:09;;;;;;;16.33;9.98;;;;;;;14.44;100.00;101897.66;5273317;28;20082;-73
2022/10/29 03:49:40;;;;;;;17.38;10.45;;;;;;;14.43;100.00;101893.31;5277289;28;20029;-72
2022/10/29 03:52:11;;;;;;;15.52;9.75;;;;;;;14.45;100.00;101900.16;5273268;28;20021;-72
2022/10/29 03:54:42;;;;;;;16.48;10.05;;;;;;;14.46;100.00;101883.34;5275717;28;20030;-72
2022/10/29 03:57:14;;;;;;;17.00;9.80;;;;;;;14.47;100.00;101887.69;5276740;28;20036;-72
2022/10/29 03:59:46;;;;;;;18.35;9.48;;;;;;;14.45;100.00;101872.94;5276775;28;20019;-72
2022/10/29 04:02:17;;;;;;;15.57;9.60;;;;;;;14.46;100.00;101871.97;5271069;28;20070;-72
2022/10/29 04:04:48;;;;;;;14.70;9.38;;;;;;;14.54;100.00;101874.81;5276404;28;20020;-72
2022/10/29 04:07:19;;;;;;;19.05;10.45;;;;;;;14.50;100.00;101862.88;5272996;28;20037;-72
2022/10/29 04:09:51;;;;;;;15.52;8.68;;;;;;;14.64;100.00;101866.97;5272377;28;20016;-73
2022/10/29 04:12:22;;;;;;;13.73;8.38;;;;;;;14.56;100.00;101867.63;5272845;28;20063;-72
2022/10/29 04:14:53;;;;;;;13.57;9.23;;;;;;;14.56;100.00;101867.63;5275628;28;20094;-72
2022/10/29 04:17:25;;;;;;;13.88;9.40;;;;;;;14.53;100.00;101867.88;5275698;28;20094;-71
2022/10/29 04:19:56;;;;;;;15.93;8.70;;;;;;;14.52;100.00;101853.88;5276219;28;20067;-72
2022/10/29 04:22:27;;;;;;;17.50;10.73;;;;;;;14.49;100.00;101848.00;5276823;28;20036;-72
2022/10/29 04:24:59;;;;;;;21.75;8.95;;;;;;;14.45;100.00;101850.06;5275514;28;20043;-72
2022/10/29 04:27:31;;;;;;;17.90;10.52;;;;;;;14.51;100.00;101851.38;5273357;28;20480;-73
2022/10/29 04:30:03;;;;;;;17.02;11.45;;;;;;;14.53;100.00;101850.25;5279753;28;20020;-73
2022/10/29 04:32:34;;;;;;;15.02;9.73;;;;;;;14.54;100.00;101851.09;5277797;28;20029;-72
2022/10/29 04:35:06;;;;;;;15.82;9.95;;;;;;;14.50;100.00;101845.25;5280755;28;20021;-72
2022/10/29 04:37:37;;;;;;;13.90;9.25;;;;;;;14.51;100.00;101841.66;5273753;28;20031;-72
2022/10/29 04:40:09;;;;;;;20.20;9.95;;;;;;;14.57;100.00;101835.84;5279675;28;20477;-72
2022/10/29 04:42:40;;;;;;;16.75;10.07;;;;;;;14.53;100.00;101842.34;5279752;28;20020;-72
2022/10/29 04:45:11;;;;;;;18.10;10.70;;;;;;;14.57;100.00;101849.03;5279292;28;20051;-72
2022/10/29 04:47:43;;;;;;;16.45;10.73;;;;;;;14.56;100.00;101844.72;5278917;28;20374;-72
2022/10/29 04:50:14;;;;;;;21.02;11.20;;;;;;;14.61;100.00;101846.97;5277825;28;20106;-72
2022/10/29 04:52:45;;;;;;;17.15;11.27;;;;;;;14.53;100.00;101844.16;5280046;28;20113;-73
2022/10/29 04:55:16;;;;;;;18.67;10.52;;;;;;;14.55;100.00;101848.34;5280190;28;20970;-72
2022/10/29 04:57:49;;;;;;;17.70;10.63;;;;;;;14.60;100.00;101842.66;5279122;28;20388;-74
2022/10/29 05:00:21;;;;;;;15.60;10.47;;;;;;;14.57;100.00;101837.66;5279045;28;20578;-72
2022/10/29 05:02:52;;;;;;;16.60;10.93;;;;;;;14.58;100.00;101839.31;5279863;28;20032;-72
2022/10/29 05:05:24;;;;;;;17.88;10.63;;;;;;;14.54;100.00;101845.81;5279280;28;20488;-72
2022/10/29 05:08:00;;;;;;;21.25;11.15;;;;;;;14.62;100.00;101843.34;5278878;28;20027;-72
2022/10/29 05:10:34;;;;;;;15.38;10.48;;;;;;;14.58;100.00;101834.03;5278798;28;20501;-72
2022/10/29 05:13:09;;;;;;;18.10;10.63;;;;;;;14.51;100.00;101835.56;5279378;28;20025;-73
2022/10/29 05:15:40;;;;;;;17.25;11.02;;;;;;;14.47;100.00;101834.94;5275786;28;20066;-72
2022/10/29 05:18:12;;;;;;;17.48;10.40;;;;;;;14.47;100.00;101834.94;5279547;28;20481;-72
2022/10/29 05:20:43;;;;;;;18.63;11.07;;;;;;;14.39;100.00;101821.56;5278009;28;20024;-72
2022/10/29 05:23:14;;;;;;;19.73;11.35;;;;;;;14.46;100.00;101832.44;5279571;28;20028;-71
2022/10/29 05:25:48;;;;;;;19.88;11.57;;;;;;;14.45;100.00;101836.03;5279033;28;20388;-72
2022/10/29 05:28:21;;;;;;;19.17;11.73;;;;;;;14.45;100.00;101828.97;5277703;28;20111;-73
2022/10/29 05:30:53;;;;;;;13.93;10.50;;;;;;;14.42;100.00;101823.94;5278664;28;20419;-71
2022/10/29 05:33:24;;;;;;;21.55;11.05;;;;;;;14.42;100.00;101810.75;5275658;28;20031;-71
2022/10/29 05:35:58;;;;;;;20.52;10.57;;;;;;;14.49;100.00;101808.44;5277498;28;20020;-72
2022/10/29 05:38:30;;;;;;;15.52;10.25;;;;;;;14.49;100.00;101813.72;5276682;28;20094;-72
2022/10/29 05:41:01;;;;;;;14.20;10.80;;;;;;;14.51;100.00;101814.47;5278004;28;20536;-75
2022/10/29 05:43:32;;;;;;;17.73;10.15;;;;;;;14.51;100.00;101815.28;5278434;28;20017;-72
2022/10/29 05:46:04;;;;;;;15.82;11.20;;;;;;;14.55;100.00;101807.94;5276523;28;20113;-72
2022/10/29 05:48:35;;;;;;;18.38;11.25;;;;;;;14.55;100.00;101805.31;5277493;28;20027;-71
2022/10/29 05:51:06;;;;;;;19.60;11.10;;;;;;;14.60;100.00;101803.94;5276395;28;20029;-71
2022/10/29 05:53:38;;;;;;;18.92;10.93;;;;;;;14.57;100.00;101798.91;5273938;28;20028;-72
2022/10/29 05:56:09;;;;;;;17.20;11.20;;;;;;;14.54;100.00;101793.91;5278157;28;20250;-71
2022/10/29 05:58:40;;;;;;;14.80;10.88;;;;;;;14.62;100.00;101798.50;5278114;28;20381;-72
2022/10/29 06:01:12;;;;;;;17.50;11.48;;;;;;;14.51;100.00;101799.47;5275590;28;20816;-71
2022/10/29 06:03:43;;;;;;;18.80;11.50;;;;;;;14.54;100.00;101798.34;5269330;28;20082;-72
2022/10/29 06:06:15;;;;;;;23.35;12.38;;;;;;;14.59;100.00;101793.53;5276833;28;20423;-72
2022/10/29 06:08:46;;;;;;;19.83;11.70;;;;;;;14.62;100.00;101795.88;5277484;28;20044;-72
2022/10/29 06:11:17;;;;;;;15.40;11.75;;;;;;;14.62;100.00;101795.88;5277768;28;20035;-71
2022/10/29 06:13:48;;;;;;;19.48;11.98;;;;;;;14.67;100.00;101801.59;5274853;28;20074;-72
2022/10/29 06:16:20;;;;;;;18.52;11.80;;;;;;;14.71;100.00;101805.66;5276436;28;20020;-73
2022/10/29 06:18:51;;;;;;;23.73;12.73;;;;;;;14.77;100.00;101825.38;5277391;28;20091;-72
2022/10/29 06:21:23;;;;;;;19.98;12.30;;;;;;;14.80;100.00;101819.81;5276858;28;20397;-74
2022/10/29 06:23:54;;;;;;;19.15;13.00;;;;;;;14.82;100.00;101820.53;5275769;28;20442;-72
2022/10/29 06:26:25;;;;;;;18.80;12.63;;;;;;;14.83;100.00;101822.22;5275373;28;20389;-72
2022/10/29 06:28:57;;;;;;;17.55;12.40;;;;;;;14.78;100.00;101813.88;5276682;28;20024;-72
2022/10/29 06:31:28;;;;;;;19.02;12.55;;;;;;;14.83;100.00;101817.75;5277194;28;20496;-73
2022/10/29 06:33:59;;;;;;;17.40;12.35;;;;;;;14.90;100.00;101814.59;5274886;28;20024;-71
2022/10/29 06:36:30;;;;;;;19.40;12.15;;;;;;;14.83;100.00;101819.56;5275589;28;20090;-71
2022/10/29 06:39:02;;;;;;;17.60;12.27;;;;;;;14.80;100.00;101814.56;5272947;28;20363;-73
2022/10/29 06:41:33;;;;;;;18.50;11.57;;;;;;;14.80;100.00;101817.19;5277056;28;20024;-71
2022/10/29 06:44:04;;;;;;;18.58;11.65;;;;;;;14.78;100.00;101816.50;5276893;28;20027;-73
2022/10/29 06:46:37;;;;;;;20.35;12.32;;;;;;;14.77;100.00;101826.22;5277161;28;20759;-71
2022/10/29 06:49:08;;;;;;;;;;;;;;;15.42;100.00;101825.78;5272466;28;20071;-71
2022/10/29 06:51:40;;;;;;;22.30;12.00;;;;;;;14.87;100.00;101833.31;5277393;28;19967;-71
2022/10/29 06:54:11;;;;;;;20.13;11.93;;;;;;;14.85;100.00;101833.47;5272816;28;20495;-72
2022/10/29 06:56:42;;;;;;;18.58;12.00;;;;;;;14.86;100.00;101834.31;5276754;28;20028;-73
2022/10/29 06:59:14;;;;;;;18.92;11.82;;;;;;;14.87;100.00;101833.31;5276088;28;20047;-72
2022/10/29 07:01:45;;;;;;;22.98;12.60;;;;;;;14.93;100.00;101836.28;5269446;28;20060;-71
2022/10/29 07:04:17;;;;;;;18.63;13.07;;;;;;;14.98;100.00;101834.06;5277804;28;20082;-71
2022/10/29 07:06:48;;;;;;;20.48;12.07;;;;;;;15.08;100.00;101828.81;5275727;28;20028;-72
2022/10/29 07:09:19;;;;;;;21.88;13.07;;;;;;;15.12;100.00;101813.53;5276626;28;20127;-72
2022/10/29 07:11:51;;;;;;;21.70;12.20;;;;;;;15.19;100.00;101818.16;5274622;28;20024;-72
2022/10/29 07:14:22;;;;;;;22.70;13.10;;;;;;;15.26;100.00;101816.59;5275923;28;20028;-72
2022/10/29 07:16:53;;;;;;;22.20;12.57;;;;;;;15.35;100.00;101814.13;5274934;28;20047;-73
2022/10/29 07:19:24;;;;;;;20.92;12.88;;;;;;;15.39;100.00;101815.53;5275081;28;20032;-72
2022/10/29 07:21:56;;;;;;;24.55;12.90;;;;;;;15.47;100.00;101798.00;5273390;28;20027;-71
2022/10/29 07:24:27;;;;;;;20.13;12.20;;;;;;;15.45;100.00;101799.09;5277145;28;20040;-72
2022/10/29 07:27:00;;;;;;;20.13;11.82;;;;;;;15.53;100.00;101794.81;5277548;28;20012;-71
2022/10/29 07:29:31;;;;;;;19.15;12.27;;;;;;;15.54;100.00;101791.19;5272118;28;20126;-71
2022/10/29 07:32:03;;;;;;;25.83;12.93;;;;;;;15.70;100.00;101798.59;5274780;28;20107;-71
2022/10/29 07:34:34;;;;;;;21.02;11.68;;;;;;;15.69;100.00;101796.94;5270784;28;20028;-71
2022/10/29 07:37:06;;;;;;;22.15;12.35;;;;;;;15.72;100.00;101796.66;5277369;28;20025;-71
2022/10/29 07:39:37;;;;;;;22.02;11.98;;;;;;;15.75;100.00;101792.88;5274847;28;20093;-72
2022/10/29 07:42:08;;;;;;;19.40;12.50;;;;;;;15.79;100.00;101788.97;5276830;28;20138;-72
2022/10/29 07:44:39;;;;;;;16.67;10.93;;;;;;;15.81;100.00;101790.50;5275149;28;20513;-74
2022/10/29 07:47:11;;;;;;;19.48;11.23;;;;;;;15.88;100.00;101792.59;5276108;28;20485;-72
2022/10/29 07:49:42;;;;;;;20.92;11.75;;;;;;;15.95;100.00;101791.06;5274498;28;20397;-74
2022/10/29 07:52:13;;;;;;;25.42;11.35;;;;;;;15.94;100.00;101790.19;5276496;28;20036;-71
2022/10/29 07:54:44;;;;;;;15.43;10.35;;;;;;;15.92;100.00;101791.34;5276526;28;20054;-71
2022/10/29 07:57:16;;;;;;;23.15;11.73;;;;;;;16.03;100.00;101796.47;5275646;28;20021;-71
2022/10/29 07:59:49;;;;;;;22.80;11.77;;;;;;;15.99;100.00;101797.72;5275861;28;20020;-72
2022/10/29 08:02:20;;;;;;;15.98;10.68;;;;;;;16.07;100.00;101799.66;5273464;28;20037;-71
2022/10/29 08:04:51;;;;;;;20.55;11.90;;;;;;;16.18;100.00;101788.91;5275060;28;20404;-71
2022/10/29 08:07:22;;;;;;;17.55;11.95;;;;;;;16.26;100.00;101795.16;5279997;28;20435;-71
2022/10/29 08:09:54;;;;;;;19.38;11.73;;;;;;;16.30;100.00;101787.75;5278183;28;20496;-71
2022/10/29 08:12:25;;;;;;;17.98;12.02;;;;;;;16.35;100.00;101788.16;5278446;28;20520;-72
2022/10/29 08:14:56;;;;;;;15.95;10.70;;;;;;;16.45;100.00;101788.97;5278655;28;20027;-72
2022/10/29 08:17:28;;;;;;;18.33;11.15;;;;;;;16.54;100.00;101781.94;5278668;28;20063;-72
2022/10/29 08:20:00;;;;;;;16.08;11.18;;;;;;;16.63;100.00;101774.94;5275376;28;20473;-72
2022/10/29 08:22:31;;;;;;;18.50;12.25;;;;;;;16.72;100.00;101772.25;5274014;28;20032;-72
2022/10/29 08:25:03;;;;;;;18.30;10.90;;;;;;;16.63;100.00;101774.94;5275830;28;20082;-72
2022/10/29 08:27:34;;;;;;;18.83;12.10;;;;;;;16.61;100.00;101782.22;5278462;28;20020;-72
2022/10/29 08:30:08;;;;;;;19.52;11.73;;;;;;;16.68;100.00;101770.06;5279199;28;20029;-72
2022/10/29 08:32:46;;;;;;;14.38;11.15;;;;;;;16.82;100.00;101774.03;5272433;28;20099;-72
2022/10/29 08:35:17;;;;;;;22.75;11.93;;;;;;;16.80;100.00;101770.72;5276406;28;20032;-72
2022/10/29 08:37:48;;;;;;;22.63;11.50;;;;;;;16.92;100.00;101780.94;5277963;28;20150;-72
2022/10/29 08:40:38;;;;;;;23.45;10.48;;;;;;;17.02;100.00;101789.66;5280096;28;20262;-72
2022/10/29 08:43:31;;;;;;;16.35;9.25;;;;;;;17.21;100.00;101785.22;5280059;28;20469;-72
2022/10/29 08:46:02;;;;;;;17.60;9.63;;;;;;;17.25;100.00;101781.28;5277935;28;20086;-72
2022/10/29 08:48:52;;;;;;;13.98;8.77;;;;;;;17.52;100.00;101777.72;5274640;28;20025;-72
2022/10/29 08:51:33;;;;;;;14.60;8.90;;;;;;;17.47;100.00;101775.53;5278507;28;20016;-72
2022/10/29 08:54:12;;;;;;;15.88;9.02;;;;;;;17.65;100.00;101780.81;5278109;28;20032;-72
2022/10/29 08:56:49;;;;;;;14.25;8.75;;;;;;;17.70;100.00;101778.53;5276307;28;20032;-72
2022/10/29 08:59:22;;;;;;;16.90;8.15;;;;;;;17.63;100.00;101769.53;5278212;28;20112;-72
2022/10/29 09:01:55;;;;;;;15.60;8.70;;;;;;;17.65;100.00;101762.28;5278922;28;20374;-72
2022/10/29 09:04:32;;;;;;;17.13;8.27;;;;;;;17.81;100.00;101766.88;5277918;28;20031;-72
2022/10/29 09:07:19;;;;;;;15.68;7.90;;;;;;;17.87;100.00;101770.72;5277599;28;20393;-72
2022/10/29 09:10:26;;;;;;;17.23;8.13;;;;;;;18.20;100.00;101761.97;5279373;28;20028;-72
2022/10/29 09:13:26;;;;;;;14.23;7.57;;;;;;;18.32;100.00;101761.72;5277074;28;20470;-72
2022/10/29 09:16:31;;;;;;;12.75;7.90;;;;;;;18.39;100.00;101766.22;5277950;28;20017;-72
2022/10/29 09:19:09;;;;;;;13.50;7.90;;;;;;;18.27;100.00;101771.97;5279093;28;20025;-72
2022/10/29 09:22:20;;;;;;;10.82;6.70;;;;;;;18.64;100.00;101771.66;5275366;28;20028;-72
2022/10/29 09:25:29;;;;;;;12.38;7.00;;;;;;;18.74;100.00;101766.22;5245622;28;20553;-72
2022/10/29 09:28:12;;;;;;;9.65;6.00;;;;;;;18.51;100.00;101763.28;5245796;28;20493;-73
2022/10/29 09:31:01;;;;;;;14.80;7.85;;;;;;;18.64;100.00;101745.94;5278543;28;20412;-72
2022/10/29 09:33:32;;;;;;;12.63;6.25;;;;;;;18.58;100.00;101756.34;5274827;28;20054;-73
2022/10/29 09:36:12;;;;;;;15.02;6.95;;;;;;;18.69;100.00;101766.69;5278983;28;20028;-72
2022/10/29 09:39:03;;;;;;;12.07;5.85;;;;;;;18.80;100.00;101745.19;5279016;28;20021;-72
2022/10/29 09:41:37;;;;;;;11.05;5.63;;;;;;;18.66;100.00;101761.69;5278494;28;20036;-72
2022/10/29 09:44:17;;;;;;;13.65;6.57;;;;;;;18.76;100.00;101750.97;5279114;28;20024;-72
2022/10/29 09:47:37;;;;;;;12.18;5.75;;;;;;;19.04;100.00;101743.56;5278698;28;20106;-72
2022/10/29 09:50:31;;;;;;;13.32;5.70;;;;;;;19.12;100.00;101744.41;5278279;28;20082;-72
2022/10/29 09:53:03;;;;;;;12.48;5.65;;;;;;;19.07;100.00;101738.75;5276082;28;20584;-72
2022/10/29 09:55:39;;;;;;;13.65;6.15;;;;;;;19.31;100.00;101723.81;5278397;28;20111;-72
2022/10/29 09:58:25;;;;;;;15.02;6.00;;;;;;;19.49;100.00;101729.81;5278437;28;20035;-72
2022/10/29 10:00:57;;;;;;;13.13;5.15;;;;;;;19.55;100.00;101733.63;5278662;28;20021;-73
2022/10/29 10:03:36;;;;;;;17.42;5.88;;;;;;;19.81;100.00;101733.44;5278592;28;20401;-72
2022/10/29 10:06:10;;;;;;;10.32;5.95;;;;;;;19.86;100.00;101728.47;5278457;28;20076;-72
2022/10/29 10:09:03;;;;;;;12.63;4.95;;;;;;;20.15;100.00;101726.06;5278499;28;20013;-73
2022/10/29 10:11:41;;;;;;;11.55;5.50;;;;;;;20.02;100.00;101723.09;5277138;28;20029;-73
2022/10/29 10:14:16;;;;;;;10.50;5.28;;;;;;;20.03;100.00;101724.75;5275444;28;20021;-73
2022/10/29 10:16:59;;;;;;;13.05;5.53;;;;;;;20.10;100.00;101720.41;5278370;28;20029;-73
2022/10/29 10:19:31;;;;;;;11.00;4.70;;;;;;;20.14;100.00;101719.06;5278966;28;20028;-72
2022/10/29 10:22:04;;;;;;;16.08;4.57;;;;;;;20.18;100.00;101722.22;5278654;28;20073;-72
2022/10/29 10:24:37;;;;;;;10.13;5.00;;;;;;;20.30;100.00;101726.16;5276378;28;20024;-72
2022/10/29 10:27:17;;;;;;;11.73;5.63;;;;;;;20.61;100.00;101731.56;5276983;28;20028;-73
2022/10/29 10:30:03;;;;;;;12.63;5.40;;;;;;;20.72;100.00;101724.16;5277881;28;20047;-73
2022/10/29 10:32:34;;;;;;;11.48;4.72;;;;;;;20.66;100.00;101717.72;5277241;28;20029;-74
2022/10/29 10:35:29;;;;;;;13.07;4.85;;;;;;;21.01;100.00;101713.66;5278160;28;20028;-72
2022/10/29 10:38:07;;;;;;;13.10;5.15;;;;;;;21.11;100.00;101708.09;5277527;28;20477;-72
2022/10/29 10:40:41;;;;;;;14.60;4.75;;;;;;;21.11;100.00;101710.75;5277116;28;20415;-72
2022/10/29 10:43:20;;;;;;;13.10;4.97;;;;;;;21.32;100.00;101708.22;5277455;28;20512;-73
2022/10/29 10:45:55;;;;;;;13.10;5.07;;;;;;;21.44;100.00;101702.50;5274582;28;20068;-72
2022/10/29 10:48:27;;;;;;;15.50;5.28;;;;;;;21.59;100.00;101706.00;5277367;28;20024;-73
2022/10/29 10:51:23;;;;;;;11.93;4.83;;;;;;;21.88;100.00;101699.88;5277612;28;20016;-73
2022/10/29 10:53:55;;;;;;;12.93;5.05;;;;;;;21.69;100.00;101698.59;5277576;28;20389;-73
2022/10/29 10:56:26;;;;;;;13.37;5.13;;;;;;;21.87;100.00;101692.91;5277490;28;20084;-73
2022/10/29 10:59:10;;;;;;;12.10;4.20;;;;;;;22.05;100.00;101689.88;5276951;28;20412;-73
2022/10/29 11:01:47;;;;;;;11.05;4.97;;;;;;;22.02;100.00;101693.72;5276550;28;20036;-73
2022/10/29 11:04:29;;;;;;;13.23;4.75;;;;;;;22.18;100.00;101690.06;5276402;28;20024;-72
2022/10/29 11:07:07;;;;;;;16.02;4.75;;;;;;;22.30;100.00;101691.22;5276807;28;20467;-73
2022/10/29 11:09:44;;;;;;;15.40;4.80;;;;;;;22.30;100.00;101696.56;5277384;28;20478;-73
2022/10/29 11:12:30;;;;;;;14.95;4.97;;;;;;;22.56;100.00;101689.91;5277178;28;20032;-73
2022/10/29 11:15:32;;;;;;;12.55;4.30;;;;;;;22.77;100.00;101689.09;5277357;28;20020;-73
2022/10/29 11:18:13;;;;;;;13.68;4.47;;;;;;;22.73;100.00;101685.97;5276383;28;20021;-73
2022/10/29 11:20:53;;;;;;;13.15;4.95;;;;;;;22.85;100.00;101683.63;5276121;28;20020;-72
2022/10/29 11:23:58;;;;;;;12.32;4.90;;;;;;;23.09;100.00;101686.97;5275816;28;20028;-73
2022/10/29 11:26:36;;;;;;;11.88;4.03;;;;;;;23.08;100.00;101679.97;5276430;28;20070;-73
2022/10/29 11:29:41;;;;;;;10.13;3.95;;;;;;;23.32;100.00;101684.88;5275992;28;20020;-73
2022/10/29 11:32:34;;;;;;;9.70;4.25;;;;;;;23.33;100.00;101675.00;5277083;28;20374;-73
2022/10/29 11:35:12;;;;;;;12.52;3.70;;;;;;;23.29;100.00;101670.06;5276657;28;20451;-73
2022/10/29 11:37:43;;;;;;;12.57;3.90;;;;;;;23.35;100.00;101675.66;5275727;28;20036;-73
2022/10/29 11:40:33;;;;;;;13.30;4.00;;;;;;;23.64;100.00;101662.09;5276775;28;20512;-73
2022/10/29 11:43:13;;;;;;;11.93;4.05;;;;;;;23.75;100.00;101652.69;5277235;28;20024;-73
2022/10/29 11:46:07;;;;;;;11.48;4.15;;;;;;;24.06;100.00;101657.59;5276461;28;20049;-73